Time;durP1;ratioP1;P1;durP2;ratioP2;P2;SDS_P1;SDS_P2;PMS_P1;PMS_P2;Temp;Humidity;BMP_temperature;BMP_pressure;BME280_temperature;BME280_humidity;BME280_pressure;Samples;Min_cycle;Max_cycle;Signal;HPM_P1;HPM_P2
2021/04/15 04:55:48;;;;;;;29.20;21.42;;;;;;;10.39;97.45;99826.13;1846218;76;22125;-62
2021/04/15 04:58:19;;;;;;;25.12;20.90;;;;;;;10.60;96.23;99832.66;1763433;79;20997;-59
2021/04/15 05:00:51;;;;;;;25.12;19.52;;;;;;;10.90;95.31;99826.53;1851639;77;22082;-60
2021/04/15 05:03:29;;;;;;;18.55;16.17;;;;;;;11.31;93.34;99828.73;1839241;77;21045;-63
2021/04/15 05:06:08;;;;;;;20.05;16.50;;;;;;;11.81;92.06;99823.88;1835445;77;20977;-65
2021/04/15 05:08:57;;;;;;;17.05;14.68;;;;;;;12.39;90.07;99827.42;1826360;77;21674;-64
2021/04/15 05:11:38;;;;;;;15.10;12.68;;;;;;;12.90;87.32;99817.80;1828021;77;21013;-61
2021/04/15 05:14:09;;;;;;;16.65;14.95;;;;;;;13.31;83.85;99820.16;1797631;79;22296;-62
2021/04/15 05:17:04;;;;;;;15.75;14.05;;;;;;;13.49;81.68;99825.87;1809523;78;20997;-61
2021/04/15 05:19:35;;;;;;;13.72;12.43;;;;;;;13.63;80.29;99827.48;1828474;77;21032;-59
2021/04/15 05:24:47;;;;;;;13.60;11.65;;;;;;;14.12;77.47;99819.97;1835192;77;21140;-64
2021/04/15 05:27:18;;;;;;;15.35;11.68;;;;;;;14.21;76.70;99820.60;1822891;77;21422;-66
2021/04/15 05:29:47;;;;;;;11.93;10.68;;;;;;;14.39;76.64;99815.78;1819189;78;21001;-64
2021/04/15 05:32:17;;;;;;;12.73;11.43;;;;;;;14.70;74.55;99818.25;1821058;77;21040;-65
2021/04/15 05:34:51;;;;;;;11.78;10.38;;;;;;;14.94;73.09;99808.00;1781180;80;20950;-62
2021/04/15 05:37:23;;;;;;;11.80;10.60;;;;;;;14.99;71.75;99808.95;1839228;77;21040;-61
2021/04/15 05:39:52;;;;;;;13.55;10.88;;;;;;;14.86;71.38;99813.47;1821274;77;22122;-64
2021/04/15 05:42:40;;;;;;;12.15;10.85;;;;;;;14.67;70.95;99810.14;1839461;77;21595;-60
2021/04/15 05:45:14;;;;;;;10.72;9.63;;;;;;;14.68;71.48;99807.88;1830363;77;21009;-59
2021/04/15 05:48:03;;;;;;;10.95;9.70;;;;;;;14.97;70.84;99804.30;1822821;77;21507;-63
2021/04/15 05:50:42;;;;;;;12.82;11.05;;;;;;;15.29;69.86;99800.45;1822255;77;21658;-63
2021/04/15 05:53:22;;;;;;;11.50;9.65;;;;;;;15.72;67.97;99784.75;1826920;77;22368;-64
2021/04/15 05:55:57;;;;;;;15.18;12.30;;;;;;;16.15;65.83;99791.73;1821880;77;21107;-61
2021/04/15 05:58:39;;;;;;;13.65;12.25;;;;;;;16.37;65.60;99792.93;1825929;77;20919;-64
2021/04/15 06:01:18;;;;;;;11.78;9.98;;;;;;;16.36;65.08;99790.43;1826375;77;21014;-61
2021/04/15 06:04:16;;;;;;;11.75;10.60;;;;;;;16.18;64.98;99796.73;1813378;77;21148;-60
2021/04/15 06:06:47;;;;;;;11.00;9.90;;;;;;;15.95;64.85;99788.14;1815487;77;21408;-64
2021/04/15 06:09:17;;;;;;;8.65;7.75;;;;;;;15.71;64.98;99792.75;1756620;80;21029;-62
2021/04/15 06:12:03;;;;;;;9.65;8.70;;;;;;;15.42;64.92;99798.53;1747287;81;21543;-61
2021/04/15 06:14:43;;;;;;;10.35;8.88;;;;;;;15.12;65.40;99797.04;1784744;79;21497;-61
2021/04/15 06:17:42;;;;;;;15.10;12.13;;;;;;;14.71;66.46;99792.39;1790124;79;21627;-59
2021/04/15 06:20:19;;;;;;;13.22;10.13;;;;;;;14.41;68.18;99794.20;1781099;79;21975;-64
2021/04/15 06:22:53;;;;;;;11.12;9.95;;;;;;;14.29;69.17;99798.61;1764979;79;21651;-63
2021/04/15 06:25:28;;;;;;;;;;;;;;;14.26;69.74;99796.22;1793646;79;20982;-60
2021/04/15 06:28:07;;;;;;;12.07;10.80;;;;;;;14.30;69.66;99799.80;1798234;79;20466;-63
2021/04/15 06:30:46;;;;;;;15.90;11.22;;;;;;;14.28;69.14;99802.18;1774929;79;21019;-62
2021/04/15 06:33:19;;;;;;;11.48;10.28;;;;;;;14.17;69.12;99806.91;1778143;79;22104;-58
2021/04/15 06:35:49;;;;;;;12.75;11.00;;;;;;;14.12;68.96;99801.64;1778735;79;21058;-61
2021/04/15 06:39:06;;;;;;;12.05;10.85;;;;;;;14.02;69.44;99802.32;1782320;79;21084;-63
2021/04/15 06:41:49;;;;;;;12.88;11.68;;;;;;;14.00;69.93;99799.45;1754330;80;20994;-64
2021/04/15 06:44:30;;;;;;;12.58;11.33;;;;;;;14.01;70.19;99801.13;1772828;80;21602;-63
2021/04/15 06:47:44;;;;;;;15.98;13.35;;;;;;;14.11;69.83;99803.42;1741847;81;21264;-64
2021/04/15 06:50:58;;;;;;;17.07;14.18;;;;;;;14.25;69.56;99798.48;1758640;80;21031;-61
2021/04/15 06:53:35;;;;;;;16.15;13.43;;;;;;;14.34;68.85;99802.56;1749635;80;21075;-60
2021/04/15 06:56:38;;;;;;;15.70;13.95;;;;;;;14.47;68.91;99806.88;1765457;80;20935;-62
2021/04/15 06:59:33;;;;;;;16.80;13.90;;;;;;;14.65;68.09;99812.88;1766124;80;21491;-62
2021/04/15 07:02:30;;;;;;;18.40;14.25;;;;;;;14.90;67.24;99805.73;1770877;80;22170;-61
2021/04/15 07:05:04;;;;;;;15.28;13.35;;;;;;;15.23;66.59;99807.02;1766193;80;21132;-58
2021/04/15 07:07:39;;;;;;;16.32;13.22;;;;;;;15.50;65.50;99799.23;1798768;79;20974;-62
2021/04/15 07:10:58;;;;;;;15.00;13.43;;;;;;;15.63;64.30;99798.14;1758176;80;21034;-60
2021/04/15 07:13:51;;;;;;;22.15;17.55;;;;;;;15.72;63.81;99801.81;1763059;80;21021;-61
2021/04/15 07:16:43;;;;;;;15.95;13.48;;;;;;;15.79;62.59;99804.30;1756193;80;22179;-61
2021/04/15 07:19:49;;;;;;;15.60;12.80;;;;;;;15.81;62.37;99802.38;1755088;79;21487;-61
2021/04/15 07:22:45;;;;;;;17.82;15.75;;;;;;;15.84;62.02;99792.95;1771240;81;21575;-64
2021/04/15 07:25:54;;;;;;;16.67;13.95;;;;;;;15.92;61.79;99794.95;1752807;81;21527;-63
2021/04/15 07:28:34;;;;;;;14.15;12.60;;;;;;;15.91;61.90;99802.00;1748988;81;21663;-63
2021/04/15 07:31:27;;;;;;;13.98;12.58;;;;;;;15.90;61.84;99802.12;1762290;81;22624;-61
2021/04/15 07:34:22;;;;;;;17.27;15.28;;;;;;;15.87;61.46;99798.43;1744342;81;21595;-64
2021/04/15 07:37:11;;;;;;;16.48;14.53;;;;;;;15.73;62.04;99794.30;1762262;81;21629;-59
2021/04/15 07:40:12;;;;;;;14.58;13.03;;;;;;;15.56;62.38;99794.81;1784887;79;21009;-61
2021/04/15 07:43:01;;;;;;;15.15;13.55;;;;;;;15.51;61.81;99786.47;1771809;79;21560;-60
2021/04/15 07:46:03;;;;;;;15.93;14.13;;;;;;;15.54;61.15;99794.09;1746571;79;21376;-71
2021/04/15 07:49:02;;;;;;;18.40;14.47;;;;;;;15.65;60.95;99792.28;1783313;79;21579;-65
2021/04/15 07:51:49;;;;;;;18.07;14.68;;;;;;;15.83;61.08;99789.97;1770109;81;21601;-61
2021/04/15 07:54:29;;;;;;;17.32;14.87;;;;;;;16.17;59.47;99788.02;1756491;80;21090;-63
2021/04/15 07:57:18;;;;;;;17.82;15.35;;;;;;;16.37;58.10;99789.47;1774458;80;21245;-63
2021/04/15 08:00:19;;;;;;;17.42;15.08;;;;;;;16.51;58.88;99788.64;1775900;80;21204;-60
2021/04/15 08:03:22;;;;;;;18.65;16.55;;;;;;;16.65;58.37;99795.39;1763722;80;21662;-65
2021/04/15 08:05:59;;;;;;;19.57;15.80;;;;;;;16.88;58.46;99792.93;1764052;80;21702;-62
2021/04/15 08:08:40;;;;;;;17.92;15.93;;;;;;;17.16;56.96;99790.55;1761410;80;20977;-63
2021/04/15 08:11:36;;;;;;;18.27;15.90;;;;;;;17.46;57.26;99780.44;1816596;77;21087;-60
2021/04/15 08:14:34;;;;;;;15.58;14.07;;;;;;;17.81;56.54;99783.41;1822204;77;21442;-62
2021/04/15 08:17:51;;;;;;;18.25;15.63;;;;;;;18.02;55.36;99784.57;1800483;77;20962;-65
2021/04/15 08:21:00;;;;;;;16.10;14.40;;;;;;;18.23;55.45;99781.30;1818863;77;20958;-62
2021/04/15 08:24:22;;;;;;;20.62;15.05;;;;;;;18.39;53.58;99782.53;1819344;77;21555;-65
2021/04/15 08:27:19;;;;;;;16.82;15.15;;;;;;;18.39;53.08;99778.09;1820758;77;21068;-64
2021/04/15 08:29:54;;;;;;;18.80;15.50;;;;;;;18.30;52.56;99777.62;1810834;77;21591;-62
2021/04/15 08:32:33;;;;;;;16.73;14.20;;;;;;;18.15;52.82;99775.90;1817792;77;21001;-62
2021/04/15 08:35:42;;;;;;;26.17;20.23;;;;;;;18.08;53.51;99776.11;1759301;80;20936;-60
2021/04/15 08:38:23;;;;;;;25.45;21.40;;;;;;;17.98;53.28;99776.14;1751847;80;21021;-61
2021/04/15 08:41:32;;;;;;;24.18;19.60;;;;;;;17.67;53.12;99771.95;1765920;81;21057;-60
2021/04/15 08:44:52;;;;;;;20.40;15.90;;;;;;;17.49;53.66;99773.10;1757825;81;22346;-59
2021/04/15 08:47:47;;;;;;;21.30;16.60;;;;;;;17.43;53.77;99768.38;1762121;80;21660;-64
2021/04/15 08:50:23;;;;;;;;;;;;;;;17.50;54.67;99767.36;1764229;80;21618;-62
2021/04/15 08:53:18;;;;;;;20.40;15.90;;;;;;;17.59;54.62;99766.54;1756984;80;20463;-67
2021/04/15 08:56:00;;;;;;;21.80;17.05;;;;;;;17.65;54.84;99768.62;1753941;80;21207;-63
2021/04/15 08:58:57;;;;;;;16.48;14.58;;;;;;;17.60;53.24;99766.38;1757687;80;22283;-62
2021/04/15 09:01:54;;;;;;;17.87;14.90;;;;;;;17.50;53.64;99764.72;1793277;77;21195;-60
2021/04/15 09:04:43;;;;;;;20.12;15.45;;;;;;;17.44;53.35;99763.46;1810930;77;21868;-62
2021/04/15 09:07:16;;;;;;;18.92;14.90;;;;;;;17.50;53.97;99756.34;1807576;77;21078;-62
2021/04/15 09:10:32;;;;;;;16.77;15.05;;;;;;;17.68;53.34;99755.67;1771872;77;21040;-63
2021/04/15 09:13:32;;;;;;;16.45;13.72;;;;;;;17.86;52.69;99760.61;1798390;77;21416;-60
2021/04/15 09:16:23;;;;;;;16.90;15.08;;;;;;;18.08;52.69;99757.66;1819343;77;21591;-60
2021/04/15 09:19:36;;;;;;;17.02;14.35;;;;;;;18.28;50.26;99758.48;1824985;77;21642;-62
2021/04/15 09:22:30;;;;;;;16.70;13.85;;;;;;;18.40;50.20;99756.00;1810157;77;21147;-64
2021/04/15 09:25:12;;;;;;;15.20;13.60;;;;;;;18.53;50.33;99752.57;1805453;79;21663;-63
2021/04/15 09:28:23;;;;;;;16.05;13.78;;;;;;;18.67;50.30;99753.12;1800168;79;23445;-62
2021/04/15 09:31:14;;;;;;;13.70;11.93;;;;;;;18.80;49.26;99745.69;1772364;79;21663;-62
2021/04/15 09:34:07;;;;;;;13.20;11.85;;;;;;;18.89;48.29;99745.66;1810195;77;21551;-64
2021/04/15 09:37:11;;;;;;;16.40;12.15;;;;;;;18.95;47.91;99737.64;1803496;77;21659;-63
2021/04/15 09:39:48;;;;;;;14.05;12.55;;;;;;;19.01;47.89;99741.51;1814382;77;21052;-60
2021/04/15 09:42:29;;;;;;;;;;;;;;;19.05;46.93;99738.92;1804838;79;22110;-59
2021/04/15 09:45:23;;;;;;;13.72;12.03;;;;;;;19.03;46.94;99746.16;1817828;77;20181;-66
2021/04/15 09:48:31;;;;;;;12.90;11.60;;;;;;;18.99;46.87;99741.66;1795780;77;21484;-61
2021/04/15 09:51:29;;;;;;;13.08;11.73;;;;;;;18.97;46.71;99740.97;1793221;77;21755;-62
2021/04/15 09:54:23;;;;;;;15.60;12.98;;;;;;;18.94;45.61;99745.22;1786398;79;21440;-60
2021/04/15 09:57:30;;;;;;;15.15;13.00;;;;;;;18.74;45.94;99737.89;1801247;79;21602;-63
2021/04/15 10:00:28;;;;;;;16.70;13.28;;;;;;;18.58;46.65;99746.38;1792938;79;21708;-63
2021/04/15 10:03:32;;;;;;;13.98;12.68;;;;;;;18.46;47.05;99744.89;1807019;79;21023;-62
2021/04/15 10:06:25;;;;;;;14.73;13.15;;;;;;;18.34;46.65;99748.69;1799308;79;21041;-59
2021/04/15 10:09:04;;;;;;;17.42;14.93;;;;;;;18.25;47.37;99750.85;1790287;79;21547;-64
2021/04/15 10:12:10;;;;;;;15.15;13.58;;;;;;;18.12;46.71;99747.19;1801353;79;22189;-62
2021/04/15 10:15:33;;;;;;;15.83;13.65;;;;;;;17.94;47.36;99745.77;1753767;80;21566;-66
2021/04/15 10:18:29;;;;;;;16.20;12.03;;;;;;;17.77;48.17;99744.31;1729106;82;21567;-61
2021/04/15 10:21:15;;;;;;;16.45;12.65;;;;;;;17.55;47.87;99738.34;1772619;80;20970;-62
2021/04/15 10:23:54;;;;;;;18.67;13.35;;;;;;;17.39;48.45;99745.09;1757774;81;21517;-61
2021/04/15 10:26:37;;;;;;;15.50;13.72;;;;;;;17.23;49.11;99738.55;1756737;81;21002;-57
2021/04/15 10:29:28;;;;;;;14.50;12.43;;;;;;;17.14;49.85;99745.96;1751398;81;21841;-63
2021/04/15 10:32:43;;;;;;;14.53;12.88;;;;;;;17.04;49.68;99744.27;1750027;81;21673;-62
2021/04/15 10:35:40;;;;;;;19.23;13.50;;;;;;;16.93;49.17;99745.19;1728930;81;22187;-60
2021/04/15 10:38:41;;;;;;;13.98;12.47;;;;;;;16.78;49.53;99737.34;1725611;81;21018;-58
2021/04/15 10:41:45;;;;;;;15.98;14.35;;;;;;;16.72;50.05;99740.50;1750738;79;21089;-65
2021/04/15 10:45:06;;;;;;;15.68;12.75;;;;;;;16.75;50.20;99741.55;1798722;79;21591;-60
2021/04/15 10:48:01;;;;;;;16.37;13.28;;;;;;;16.83;50.65;99739.06;1786032;79;21760;-62
2021/04/15 10:51:02;;;;;;;18.17;13.38;;;;;;;16.90;49.81;99742.34;1803177;79;21009;-63
2021/04/15 10:53:54;;;;;;;15.13;13.15;;;;;;;16.99;49.26;99739.41;1808271;79;20937;-61
2021/04/15 10:56:29;;;;;;;14.43;12.85;;;;;;;17.01;48.78;99738.78;1805260;78;21353;-64
2021/04/15 10:59:08;;;;;;;15.38;13.80;;;;;;;16.99;48.91;99736.77;1817127;78;21062;-61
2021/04/15 11:01:41;;;;;;;14.80;13.08;;;;;;;17.03;48.72;99739.48;1810514;78;21353;-61
2021/04/15 11:04:18;;;;;;;14.28;12.82;;;;;;;17.05;48.74;99740.19;1811604;78;21029;-63
2021/04/15 11:07:08;;;;;;;14.73;12.98;;;;;;;17.11;48.96;99735.70;1805495;78;26156;-63
2021/04/15 11:09:43;;;;;;;13.65;11.78;;;;;;;17.18;48.50;99738.63;1763865;80;21116;-62
2021/04/15 11:12:19;;;;;;;18.27;14.58;;;;;;;17.27;48.93;99736.48;1820099;78;21013;-63
2021/04/15 11:15:22;;;;;;;14.68;13.00;;;;;;;17.38;48.15;99732.91;1725917;81;21470;-62
2021/04/15 11:17:53;;;;;;;16.57;13.35;;;;;;;17.47;48.03;99740.81;1813735;78;21662;-65
2021/04/15 11:20:32;;;;;;;15.65;13.58;;;;;;;17.57;47.42;99732.94;1796750;78;21110;-66
2021/04/15 11:23:26;;;;;;;16.15;12.70;;;;;;;17.65;47.36;99735.71;1794015;79;20950;-64
2021/04/15 11:26:11;;;;;;;16.67;13.28;;;;;;;17.70;47.05;99731.35;1779621;78;21068;-63
2021/04/15 11:28:40;;;;;;;16.73;13.70;;;;;;;17.73;45.94;99729.76;1815096;78;20938;-65
2021/04/15 11:31:15;;;;;;;15.13;12.95;;;;;;;17.74;46.74;99726.16;1812693;78;21599;-64
2021/04/15 11:33:52;;;;;;;16.27;14.43;;;;;;;17.78;46.83;99723.11;1813987;78;21057;-70
2021/04/15 11:36:37;;;;;;;17.12;13.50;;;;;;;17.80;46.58;99721.66;1812601;78;22098;-64
2021/04/15 11:39:20;;;;;;;16.00;14.30;;;;;;;17.81;46.43;99720.20;1820381;78;21033;-66
2021/04/15 11:42:05;;;;;;;14.00;12.60;;;;;;;17.82;45.62;99717.91;1805793;78;21053;-62
2021/04/15 11:44:53;;;;;;;14.90;12.65;;;;;;;17.78;46.51;99717.84;1811630;78;21570;-62
2021/04/15 11:47:26;;;;;;;15.60;13.93;;;;;;;17.85;46.17;99712.84;1812689;78;21094;-63
2021/04/15 11:50:50;;;;;;;26.93;20.50;;;;;;;17.92;46.36;99714.78;1822669;78;21413;-62
2021/04/15 11:53:53;;;;;;;22.25;18.73;;;;;;;18.00;46.35;99716.20;1812374;78;20998;-62
2021/04/15 11:56:32;;;;;;;46.28;35.05;;;;;;;18.07;45.85;99713.84;1813790;77;20994;-64
2021/04/15 11:59:28;;;;;;;31.40;22.85;;;;;;;18.03;45.75;99707.67;1827661;77;21594;-66
2021/04/15 12:02:18;;;;;;;;;;;;;;;18.02;45.96;99700.74;1833976;77;21096;-63
2021/04/15 12:04:46;;;;;;;16.20;14.53;;;;;;;18.00;46.30;99705.67;1799990;77;22237;-64
2021/04/15 12:07:24;;;;;;;15.38;13.35;;;;;;;18.00;46.95;99708.30;1821829;77;21583;-64
2021/04/15 12:09:55;;;;;;;16.97;14.15;;;;;;;17.99;46.31;99701.38;1799585;77;21021;-64
2021/04/15 12:12:35;;;;;;;15.23;13.68;;;;;;;18.02;46.11;99703.37;1822807;77;20985;-65
2021/04/15 12:15:10;;;;;;;16.50;14.65;;;;;;;17.96;45.41;99706.12;1826059;77;20977;-65
2021/04/15 12:17:53;;;;;;;14.65;13.05;;;;;;;17.92;45.78;99696.34;1804978;77;21433;-64
2021/04/15 12:20:34;;;;;;;14.63;13.13;;;;;;;17.94;45.96;99702.80;1830462;77;22125;-67
2021/04/15 12:23:12;;;;;;;15.98;14.23;;;;;;;17.99;45.35;99700.05;1828844;77;21614;-60
2021/04/15 12:25:57;;;;;;;16.42;13.83;;;;;;;18.01;45.36;99699.91;1833615;77;21203;-66
2021/04/15 12:28:47;;;;;;;22.35;17.27;;;;;;;18.02;45.79;99690.20;1834273;77;20937;-62
2021/04/15 12:31:31;;;;;;;15.98;14.28;;;;;;;18.03;45.59;99694.02;1814323;77;21181;-61
2021/04/15 12:34:42;;;;;;;17.80;15.13;;;;;;;18.03;45.26;99681.33;1795693;77;22739;-61
2021/04/15 12:37:26;;;;;;;18.70;14.93;;;;;;;17.96;45.20;99685.05;1686502;85;21678;-59
2021/04/15 12:40:27;;;;;;;18.87;16.85;;;;;;;17.92;45.13;99679.71;1752569;80;22611;-64
2021/04/15 12:43:24;;;;;;;17.35;14.90;;;;;;;17.90;45.15;99675.06;1765025;80;21538;-65
2021/04/15 12:46:04;;;;;;;17.98;14.23;;;;;;;17.88;45.20;99675.20;1766527;80;21311;-60
2021/04/15 12:48:57;;;;;;;16.73;13.88;;;;;;;17.84;45.22;99671.19;1815317;77;21493;-62
2021/04/15 12:51:30;;;;;;;16.80;14.03;;;;;;;17.82;44.59;99670.98;1815265;77;21050;-65
2021/04/15 12:54:02;;;;;;;14.50;12.90;;;;;;;17.72;44.58;99668.84;1831778;77;21185;-66
2021/04/15 12:56:45;;;;;;;14.23;12.55;;;;;;;17.58;44.33;99660.39;1769258;79;21104;-64
2021/04/15 12:59:25;;;;;;;15.15;13.55;;;;;;;17.50;44.83;99663.38;1793965;79;21772;-66
2021/04/15 13:01:55;;;;;;;14.20;12.70;;;;;;;17.46;45.17;99669.39;1799638;79;21649;-65
2021/04/15 13:04:38;;;;;;;18.23;14.13;;;;;;;17.47;45.18;99659.70;1828964;77;20920;-65
2021/04/15 13:07:15;;;;;;;20.02;13.78;;;;;;;17.50;45.51;99657.62;1768481;81;21436;-68
2021/04/15 13:09:48;;;;;;;19.23;13.48;;;;;;;17.53;45.76;99661.30;1783737;79;21649;-65
2021/04/15 13:12:25;;;;;;;18.80;13.88;;;;;;;17.56;46.13;99666.77;1768971;81;21056;-61
2021/04/15 13:14:56;;;;;;;14.55;12.95;;;;;;;17.52;45.93;99658.80;1784765;79;21204;-65
2021/04/15 13:17:44;;;;;;;15.38;13.78;;;;;;;17.41;46.17;99659.77;1827747;77;21078;-60
2021/04/15 13:20:22;;;;;;;18.52;15.65;;;;;;;17.24;46.19;99664.38;1830393;77;21024;-61
2021/04/15 13:23:09;;;;;;;24.02;15.40;;;;;;;17.08;46.91;99668.06;1817640;77;21614;-62
2021/04/15 13:25:56;;;;;;;12.85;11.48;;;;;;;16.89;47.71;99680.19;1822948;77;21565;-60
2021/04/15 13:28:48;;;;;;;17.87;13.32;;;;;;;16.47;51.35;99691.78;1824279;77;21049;-61
2021/04/15 13:31:45;;;;;;;14.98;13.28;;;;;;;15.73;53.83;99686.66;1827354;77;21574;-64
2021/04/15 13:34:25;;;;;;;16.52;13.30;;;;;;;15.17;56.39;99693.44;1822940;77;21497;-59
2021/04/15 13:37:32;;;;;;;14.38;12.78;;;;;;;14.60;58.16;99680.06;1820033;77;20912;-61
2021/04/15 13:40:35;;;;;;;13.90;12.40;;;;;;;14.18;60.75;99698.59;1825117;77;21493;-62
2021/04/15 13:43:40;;;;;;;15.28;13.65;;;;;;;13.61;65.04;99711.64;1824195;77;22625;-64
2021/04/15 13:46:35;;;;;;;19.35;14.53;;;;;;;13.12;68.45;99708.66;1805091;78;21649;-61
2021/04/15 13:49:11;;;;;;;15.90;13.13;;;;;;;12.61;71.85;99715.31;1806786;78;21131;-65
2021/04/15 13:51:55;;;;;;;16.70;13.65;;;;;;;12.07;73.81;99728.22;1859175;77;21546;-66
2021/04/15 13:54:35;;;;;;;16.17;11.63;;;;;;;11.63;76.48;99731.96;1832685;77;21474;-67
2021/04/15 13:57:14;;;;;;;17.70;12.53;;;;;;;11.35;78.19;99736.36;1800382;77;21420;-64
2021/04/15 13:59:50;;;;;;;13.93;12.00;;;;;;;11.17;79.00;99732.34;1815955;78;21052;-64
2021/04/15 14:02:28;;;;;;;14.85;13.03;;;;;;;11.07;81.43;99737.75;1813661;78;24301;-63
2021/04/15 14:05:02;;;;;;;17.15;15.10;;;;;;;10.95;83.65;99735.91;1805355;78;21623;-70
2021/04/15 14:07:49;;;;;;;18.80;16.75;;;;;;;10.84;85.11;99727.45;1805447;78;21048;-65
2021/04/15 14:10:20;;;;;;;14.00;12.55;;;;;;;10.77;85.51;99722.28;1811671;78;21044;-64
2021/04/15 14:13:06;;;;;;;16.00;13.58;;;;;;;10.72;86.46;99733.44;1807268;78;21331;-66
2021/04/15 14:15:45;;;;;;;17.10;13.65;;;;;;;10.72;88.25;99725.63;1810693;79;21946;-64
2021/04/15 14:18:38;;;;;;;14.45;12.98;;;;;;;10.76;90.97;99725.81;1815359;79;21635;-63
